Time;durP1;ratioP1;P1;durP2;ratioP2;P2;SDS_P1;SDS_P2;PMS_P1;PMS_P2;Temp;Humidity;BMP_temperature;BMP_pressure;BME280_temperature;BME280_humidity;BME280_pressure;Samples;Min_cycle;Max_cycle;Signal;HPM_P1;HPM_P2
2021/09/13 00:02:00;;;;;;;4.73;4.33;;;;;;;;;;6371391;22;20359;-76
2021/09/13 00:04:26;;;;;;;10.00;4.70;;;;;;;;;;6381980;22;20424;-76
2021/09/13 00:06:52;;;;;;;5.03;4.57;;;;;;;;;;6372190;22;20910;-76
2021/09/13 00:09:18;;;;;;;7.17;4.00;;;;;;;;;;6382384;22;20454;-75
2021/09/13 00:11:44;;;;;;;5.30;4.60;;;;;;;;;;6382313;22;20713;-74
2021/09/13 00:14:10;;;;;;;6.80;4.60;;;;;;;;;;6343768;22;20398;-75
2021/09/13 00:16:36;;;;;;;5.63;4.40;;;;;;;;;;6371979;22;20371;-75
2021/09/13 00:19:02;;;;;;;6.00;4.63;;;;;;;;;;6382008;22;20374;-76
2021/09/13 00:21:28;;;;;;;7.80;4.20;;;;;;;;;;6371367;22;20860;-75
2021/09/13 00:23:54;;;;;;;9.53;5.30;;;;;;;;;;6382410;22;20395;-77
2021/09/13 00:29:23;;;;;;;6.30;5.10;;;;;;;;;;6382155;22;20803;-76
2021/09/13 00:31:49;;;;;;;5.43;4.73;;;;;;;;;;6343601;22;20390;-76
2021/09/13 00:34:15;;;;;;;7.47;4.60;;;;;;;;;;6382312;22;20367;-76
2021/09/13 00:36:41;;;;;;;5.60;4.80;;;;;;;;;;6381746;22;20446;-75
2021/09/13 00:39:07;;;;;;;8.20;5.87;;;;;;;;;;6382193;22;20719;-76
2021/09/13 00:44:37;;;;;;;8.77;5.80;;;;;;;;;;6382083;22;20366;-77
2021/09/13 00:47:03;;;;;;;5.70;5.10;;;;;;;;;;6371620;22;20390;-75
2021/09/13 00:49:29;;;;;;;5.37;4.87;;;;;;;;;;6371571;22;20427;-76
2021/09/13 00:51:55;;;;;;;5.37;4.50;;;;;;;;;;6381588;22;20367;-74
2021/09/13 00:54:21;;;;;;;8.70;5.57;;;;;;;;;;6381978;22;20690;-76
2021/09/13 00:59:50;;;;;;;6.03;4.63;;;;;;;;;;6382162;22;20681;-76
2021/09/13 01:02:16;;;;;;;6.63;4.60;;;;;;;;;;6382054;22;20367;-76
2021/09/13 01:04:42;;;;;;;5.47;4.90;;;;;;;;;;6381952;22;20382;-77
2021/09/13 01:07:08;;;;;;;6.10;5.00;;;;;;;;;;6381692;22;20351;-75
2021/09/13 01:09:34;;;;;;;8.03;4.30;;;;;;;;;;6371375;22;20427;-75
2021/09/13 01:15:04;;;;;;;5.63;5.13;;;;;;;;;;6382046;22;20481;-77
2021/09/13 01:17:30;;;;;;;4.60;4.20;;;;;;;;;;6381820;22;20371;-76
2021/09/13 01:19:56;;;;;;;5.10;4.60;;;;;;;;;;6382022;22;20386;-76
2021/09/13 01:22:22;;;;;;;4.73;4.20;;;;;;;;;;6381342;22;20408;-78
2021/09/13 01:24:48;;;;;;;5.47;4.97;;;;;;;;;;6381319;22;20437;-75
2021/09/13 01:27:14;;;;;;;11.80;5.10;;;;;;;;;;6381231;22;20430;-75
2021/09/13 01:29:41;;;;;;;7.00;4.93;;;;;;;;;;6381488;22;20688;-75
2021/09/13 01:32:07;;;;;;;7.37;4.47;;;;;;;;;;6381624;22;20359;-75
2021/09/13 01:34:33;;;;;;;5.43;4.70;;;;;;;;;;6381634;22;20364;-76
2021/09/13 01:36:59;;;;;;;6.67;4.60;;;;;;;;;;6370997;22;20869;-75
2021/09/13 01:39:26;;;;;;;6.67;5.20;;;;;;;;;;6342793;22;20395;-76
2021/09/13 01:44:55;;;;;;;6.97;5.40;;;;;;;;;;6381047;22;20424;-76
2021/09/13 01:47:21;;;;;;;6.00;4.30;;;;;;;;;;6381459;22;20367;-76
2021/09/13 01:49:47;;;;;;;5.43;4.93;;;;;;;;;;6381373;22;20415;-76
2021/09/13 01:52:13;;;;;;;4.67;4.17;;;;;;;;;;6381372;22;20410;-76
2021/09/13 01:54:39;;;;;;;5.67;5.13;;;;;;;;;;6381272;22;20368;-74
2021/09/13 02:00:09;;;;;;;5.83;5.27;;;;;;;;;;6381460;22;20412;-75
2021/09/13 02:02:35;;;;;;;6.63;5.10;;;;;;;;;;6381326;22;20368;-76
2021/09/13 02:05:01;;;;;;;5.53;5.03;;;;;;;;;;6380854;22;20359;-74
2021/09/13 02:07:27;;;;;;;5.90;5.30;;;;;;;;;;6381422;22;20360;-76
2021/09/13 02:09:53;;;;;;;6.00;4.60;;;;;;;;;;6381132;22;20418;-77
2021/09/13 02:15:22;;;;;;;6.87;4.77;;;;;;;;;;6381242;22;20500;-76
2021/09/13 02:17:50;;;;;;;6.10;5.07;;;;;;;;;;6381129;22;20395;-75
2021/09/13 02:20:16;;;;;;;5.53;5.03;;;;;;;;;;6381252;22;20849;-75
2021/09/13 02:22:42;;;;;;;7.93;5.40;;;;;;;;;;6381119;22;20724;-75
2021/09/13 02:25:09;;;;;;;5.57;5.00;;;;;;;;;;6380518;22;20418;-75
2021/09/13 02:27:35;;;;;;;7.10;5.90;;;;;;;;;;6380521;22;20480;-75
2021/09/13 02:30:01;;;;;;;5.10;4.70;;;;;;;;;;6342143;22;20438;-75
2021/09/13 02:32:27;;;;;;;7.30;5.53;;;;;;;;;;6380806;22;20881;-74
2021/09/13 02:34:53;;;;;;;7.47;6.30;;;;;;;;;;6380672;22;20375;-75
2021/09/13 02:37:19;;;;;;;6.90;5.53;;;;;;;;;;6370460;22;20760;-75
2021/09/13 02:39:45;;;;;;;5.60;5.20;;;;;;;;;;6380447;22;20403;-76
2021/09/13 02:45:14;;;;;;;5.80;5.00;;;;;;;;;;6380745;22;20415;-76
2021/09/13 02:47:40;;;;;;;6.87;5.40;;;;;;;;;;6380172;22;20363;-76
2021/09/13 02:50:07;;;;;;;7.60;5.40;;;;;;;;;;6380573;22;20418;-76
2021/09/13 02:52:33;;;;;;;6.53;4.87;;;;;;;;;;6370395;22;20865;-75
2021/09/13 02:54:59;;;;;;;7.47;4.57;;;;;;;;;;6380479;22;20364;-77
2021/09/13 03:00:28;;;;;;;5.13;4.67;;;;;;;;;;6380672;22;20374;-76
2021/09/13 03:02:54;;;;;;;5.20;4.63;;;;;;;;;;6370073;22;20387;-76
2021/09/13 03:05:20;;;;;;;6.67;5.40;;;;;;;;;;6380489;22;20359;-76
2021/09/13 03:07:46;;;;;;;9.17;5.00;;;;;;;;;;6380035;22;20818;-73
2021/09/13 03:10:13;;;;;;;4.60;4.20;;;;;;;;;;6380366;22;20419;-75
2021/09/13 03:15:42;;;;;;;7.23;4.87;;;;;;;;;;6380631;22;20381;-76
2021/09/13 03:18:08;;;;;;;5.70;5.20;;;;;;;;;;6380664;22;20379;-76
2021/09/13 03:20:34;;;;;;;5.60;4.80;;;;;;;;;;6380650;22;20374;-75
2021/09/13 03:23:00;;;;;;;7.17;4.43;;;;;;;;;;6380496;22;20374;-75
2021/09/13 03:25:26;;;;;;;4.60;4.20;;;;;;;;;;6380214;22;20374;-76
2021/09/13 03:30:55;;;;;;;5.23;4.73;;;;;;;;;;6380461;22;20412;-75
2021/09/13 03:33:21;;;;;;;7.03;4.40;;;;;;;;;;6341863;22;20873;-76
2021/09/13 03:35:47;;;;;;;6.67;5.00;;;;;;;;;;6380012;22;20367;-76
2021/09/13 03:38:13;;;;;;;5.70;4.63;;;;;;;;;;6380390;22;20368;-74
2021/09/13 03:40:39;;;;;;;6.57;4.70;;;;;;;;;;6380239;22;20371;-75
2021/09/13 03:43:05;;;;;;;6.30;5.13;;;;;;;;;;6369983;22;20389;-75
2021/09/13 03:45:31;;;;;;;5.43;4.93;;;;;;;;;;6342270;22;20402;-75
2021/09/13 03:47:57;;;;;;;6.23;5.40;;;;;;;;;;6379874;22;20375;-75
2021/09/13 03:50:23;;;;;;;4.93;4.33;;;;;;;;;;6380125;22;20739;-76
2021/09/13 03:52:49;;;;;;;5.40;4.77;;;;;;;;;;6380335;22;20391;-77
2021/09/13 03:55:15;;;;;;;5.50;4.47;;;;;;;;;;6380254;22;20375;-77
2021/09/13 04:00:45;;;;;;;4.93;4.40;;;;;;;;;;6380364;22;20367;-76
2021/09/13 04:03:15;;;;;;;4.60;4.20;;;;;;;;;;6380216;22;20363;-74
2021/09/13 04:05:44;;;;;;;4.03;3.63;;;;;;;;;;6380304;22;20458;-75
2021/09/13 04:08:17;;;;;;;3.80;3.40;;;;;;;;;;6380217;22;20363;-76
2021/09/13 04:16:31;;;;;;;4.30;3.93;;;;;;;;;;6379838;22;20419;-75
2021/09/13 04:18:57;;;;;;;7.00;4.50;;;;;;;;;;6379905;22;20416;-75
2021/09/13 04:21:23;;;;;;;8.00;4.47;;;;;;;;;;6380138;22;20390;-75
2021/09/13 04:23:49;;;;;;;5.00;4.43;;;;;;;;;;6380155;22;20465;-74
2021/09/13 04:26:15;;;;;;;5.27;4.77;;;;;;;;;;6369397;22;20430;-75
2021/09/13 04:28:41;;;;;;;7.53;4.47;;;;;;;;;;6379895;22;20825;-76
2021/09/13 04:31:07;;;;;;;8.20;4.57;;;;;;;;;;6379557;22;20491;-76
2021/09/13 04:33:33;;;;;;;5.03;4.63;;;;;;;;;;6380094;22;20360;-77
2021/09/13 04:35:59;;;;;;;4.60;4.20;;;;;;;;;;6380141;22;20436;-74
2021/09/13 04:38:25;;;;;;;5.87;5.27;;;;;;;;;;6380161;22;20826;-76
2021/09/13 04:40:51;;;;;;;5.70;4.97;;;;;;;;;;6379984;22;20427;-77
2021/09/13 04:46:20;;;;;;;11.03;5.53;;;;;;;;;;6380152;22;20412;-74
2021/09/13 04:48:46;;;;;;;7.40;5.00;;;;;;;;;;6381317;22;20777;-76
2021/09/13 04:51:12;;;;;;;12.00;4.73;;;;;;;;;;6381510;22;20380;-75
2021/09/13 04:53:38;;;;;;;14.77;5.00;;;;;;;;;;6381949;22;20371;-75
2021/09/13 04:56:04;;;;;;;8.53;5.27;;;;;;;;;;6381845;22;20459;-74
2021/09/13 05:01:34;;;;;;;11.33;5.47;;;;;;;;;;6381922;22;20385;-76
2021/09/13 05:04:00;;;;;;;11.73;6.80;;;;;;;;;;6381966;22;20382;-76
2021/09/13 05:06:26;;;;;;;8.77;5.83;;;;;;;;;;6381861;22;20754;-76
2021/09/13 05:08:51;;;;;;;6.40;5.17;;;;;;;;;;6381705;22;20416;-76
2021/09/13 05:11:17;;;;;;;6.33;5.50;;;;;;;;;;6381379;22;20402;-74
2021/09/13 05:13:43;;;;;;;7.17;5.97;;;;;;;;;;6381469;22;20367;-76
2021/09/13 05:16:09;;;;;;;7.40;5.23;;;;;;;;;;6381765;22;20375;-77
2021/09/13 05:18:35;;;;;;;7.27;4.77;;;;;;;;;;6381776;22;20379;-76
2021/09/13 05:21:01;;;;;;;6.57;5.00;;;;;;;;;;6381638;22;20364;-75
2021/09/13 05:23:27;;;;;;;10.70;5.73;;;;;;;;;;6371438;22;20772;-74
2021/09/13 05:25:53;;;;;;;8.10;5.40;;;;;;;;;;6381317;22;20423;-76
2021/09/13 05:31:23;;;;;;;7.17;4.77;;;;;;;;;;6381731;22;20787;-73
2021/09/13 05:33:49;;;;;;;7.17;5.97;;;;;;;;;;6370868;22;20386;-77
2021/09/13 05:36:15;;;;;;;8.27;5.90;;;;;;;;;;6381801;22;20383;-74
2021/09/13 05:38:41;;;;;;;5.77;5.20;;;;;;;;;;6381664;22;20360;-76
2021/09/13 05:41:07;;;;;;;6.43;5.00;;;;;;;;;;6381621;22;20355;-76
2021/09/13 05:46:36;;;;;;;6.43;4.83;;;;;;;;;;6381224;22;20374;-75
2021/09/13 05:49:04;;;;;;;5.33;4.83;;;;;;;;;;6381520;22;20407;-74
2021/09/13 05:51:30;;;;;;;9.67;5.87;;;;;;;;;;6370898;22;20470;-76
2021/09/13 05:53:56;;;;;;;5.53;5.00;;;;;;;;;;6342570;22;20387;-76
2021/09/13 05:56:22;;;;;;;7.83;5.90;;;;;;;;;;6377907;22;20461;-74
2021/09/13 06:01:52;;;;;;;7.80;5.20;;;;;;;;;;6381445;22;20849;-74
2021/09/13 06:04:18;;;;;;;10.70;5.73;;;;;;;;;;6381357;22;20370;-76
2021/09/13 06:06:44;;;;;;;8.67;6.40;;;;;;;;;;6371306;22;20377;-73
2021/09/13 06:09:11;;;;;;;6.80;5.20;;;;;;;;;;6370672;22;20465;-76
2021/09/13 06:11:37;;;;;;;5.37;4.40;;;;;;;;;;6370855;22;20390;-76
2021/09/13 06:17:07;;;;;;;6.00;4.40;;;;;;;;;;6381169;22;20832;-75
2021/09/13 06:19:32;;;;;;;8.23;5.60;;;;;;;;;;6381400;22;20454;-77
2021/09/13 06:21:59;;;;;;;6.43;4.73;;;;;;;;;;6381063;22;20368;-74
2021/09/13 06:24:24;;;;;;;5.87;5.37;;;;;;;;;;6370434;22;20371;-77
2021/09/13 06:26:50;;;;;;;9.50;4.90;;;;;;;;;;6380902;22;20453;-74
2021/09/13 06:29:16;;;;;;;9.60;6.00;;;;;;;;;;6380097;22;20513;-73
2021/09/13 06:31:43;;;;;;;6.07;5.57;;;;;;;;;;6370164;22;20414;-75
2021/09/13 06:34:11;;;;;;;8.63;5.60;;;;;;;;;;6370430;22;20394;-75
2021/09/13 06:36:36;;;;;;;7.97;6.00;;;;;;;;;;6369761;22;20387;-76
2021/09/13 06:39:03;;;;;;;6.77;6.17;;;;;;;;;;6380443;22;20371;-78
2021/09/13 06:41:28;;;;;;;10.60;5.93;;;;;;;;;;6376532;22;20359;-75
2021/09/13 06:47:04;;;;;;;6.40;5.80;;;;;;;;;;6380071;22;20416;-75
2021/09/13 06:49:30;;;;;;;7.93;5.60;;;;;;;;;;6379826;22;20425;-75
2021/09/13 06:51:56;;;;;;;8.83;5.60;;;;;;;;;;6369275;22;20375;-73
2021/09/13 06:54:22;;;;;;;7.40;4.63;;;;;;;;;;6380148;22;20379;-75
2021/09/13 06:56:48;;;;;;;9.63;5.23;;;;;;;;;;6380337;22;20413;-75
2021/09/13 07:02:17;;;;;;;4.93;4.43;;;;;;;;;;6380442;22;20698;-75
2021/09/13 07:04:43;;;;;;;8.90;4.83;;;;;;;;;;6380516;22;20402;-77
2021/09/13 07:07:09;;;;;;;7.77;6.00;;;;;;;;;;6380488;22;20371;-75
2021/09/13 07:09:36;;;;;;;16.37;6.10;;;;;;;;;;6380225;22;20419;-75
2021/09/13 07:12:02;;;;;;;8.90;5.63;;;;;;;;;;6368168;22;20417;-75
2021/09/13 07:17:31;;;;;;;7.30;6.00;;;;;;;;;;6378627;22;20721;-76
2021/09/13 07:19:57;;;;;;;13.40;5.87;;;;;;;;;;6379575;22;20367;-73
2021/09/13 07:22:23;;;;;;;5.93;5.37;;;;;;;;;;6379634;22;20755;-74
2021/09/13 07:24:49;;;;;;;6.70;5.27;;;;;;;;;;6373053;22;20382;-76
2021/09/13 07:27:15;;;;;;;11.80;6.17;;;;;;;;;;6367734;22;20508;-76
2021/09/13 07:32:45;;;;;;;8.63;5.60;;;;;;;;;;6379331;22;20455;-77
2021/09/13 07:35:11;;;;;;;6.40;5.07;;;;;;;;;;6369056;22;20395;-79
2021/09/13 07:37:38;;;;;;;7.10;4.93;;;;;;;;;;6368754;22;20656;-74
2021/09/13 07:40:04;;;;;;;8.47;5.90;;;;;;;;;;6379079;22;20359;-75
2021/09/13 07:42:31;;;;;;;8.20;5.67;;;;;;;;;;6368997;22;20649;-76
2021/09/13 07:44:58;;;;;;;6.50;5.43;;;;;;;;;;6379191;22;20421;-75
2021/09/13 07:47:24;;;;;;;10.00;5.47;;;;;;;;;;6368591;22;20383;-76
2021/09/13 07:49:50;;;;;;;11.43;5.20;;;;;;;;;;6368871;22;20476;-75
2021/09/13 07:52:16;;;;;;;9.80;5.60;;;;;;;;;;6368524;22;20382;-87
2021/09/13 07:54:42;;;;;;;5.97;5.30;;;;;;;;;;6379452;22;20367;-83
2021/09/13 07:57:08;;;;;;;5.07;4.63;;;;;;;;;;6379502;22;20849;-86
2021/09/13 08:02:38;;;;;;;7.50;4.13;;;;;;;;;;6379146;22;20393;-84
2021/09/13 08:05:04;;;;;;;7.67;6.00;;;;;;;;;;6379114;22;20359;-85
2021/09/13 08:07:30;;;;;;;4.87;4.37;;;;;;;;;;6380858;22;20760;-84
2021/09/13 08:09:56;;;;;;;9.43;4.63;;;;;;;;;;6371460;22;20423;-85
2021/09/13 08:12:22;;;;;;;4.90;4.50;;;;;;;;;;6378861;22;20365;-85
2021/09/13 08:17:52;;;;;;;4.10;3.70;;;;;;;;;;6379137;22;20902;-86
2021/09/13 08:20:18;;;;;;;5.27;3.93;;;;;;;;;;6368948;22;20367;-86
2021/09/13 08:22:44;;;;;;;4.60;4.30;;;;;;;;;;6381619;22;20370;-84
2021/09/13 08:25:10;;;;;;;4.47;3.90;;;;;;;;;;6381304;22;20798;-86
2021/09/13 08:27:36;;;;;;;4.23;3.83;;;;;;;;;;6381211;22;20421;-84
2021/09/13 08:33:06;;;;;;;3.87;3.67;;;;;;;;;;6381207;22;20427;-84
2021/09/13 08:35:32;;;;;;;5.30;3.97;;;;;;;;;;6381431;22;20355;-82
2021/09/13 08:37:59;;;;;;;3.43;2.93;;;;;;;;;;6381139;22;20681;-85
2021/09/13 08:40:25;;;;;;;4.77;3.83;;;;;;;;;;6370247;22;20386;-86
2021/09/13 08:42:51;;;;;;;4.93;4.03;;;;;;;;;;6342761;22;20418;-85
2021/09/13 08:51:19;;;;;;;5.07;4.57;;;;;;;;;;6347312;22;20693;-85
2021/09/13 08:53:55;;;;;;;4.80;4.40;;;;;;;;;;6380865;22;20391;-85
2021/09/13 08:56:27;;;;;;;4.90;4.33;;;;;;;;;;6370553;22;20431;-86
2021/09/13 08:58:54;;;;;;;4.70;4.40;;;;;;;;;;6370634;22;20375;-84
2021/09/13 09:01:21;;;;;;;5.70;4.07;;;;;;;;;;6380471;22;20657;-86
2021/09/13 09:03:48;;;;;;;5.13;3.80;;;;;;;;;;6380824;22;20446;-86
2021/09/13 09:06:28;;;;;;;4.60;4.20;;;;;;;;;;6370106;22;20399;-86
2021/09/13 09:09:08;;;;;;;4.23;3.83;;;;;;;;;;6342738;22;20525;-86
2021/09/13 09:11:50;;;;;;;5.00;4.47;;;;;;;;;;6383263;22;20371;-86
2021/09/13 09:14:25;;;;;;;5.27;4.80;;;;;;;;;;6384169;22;20355;-85
2021/09/13 09:17:02;;;;;;;5.33;4.93;;;;;;;;;;6370147;22;20378;-86
2021/09/13 09:19:28;;;;;;;6.63;5.13;;;;;;;;;;6370357;22;20374;-85
2021/09/13 09:21:54;;;;;;;5.17;4.67;;;;;;;;;;6370450;22;20667;-83
2021/09/13 09:24:20;;;;;;;5.83;4.70;;;;;;;;;;6380523;22;20355;-78
2021/09/13 09:27:03;;;;;;;5.93;4.53;;;;;;;;;;6380389;22;20429;-85
2021/09/13 09:29:29;;;;;;;4.13;3.73;;;;;;;;;;6369545;22;20439;-86
2021/09/13 09:31:57;;;;;;;7.13;4.50;;;;;;;;;;6380566;22;20359;-84
2021/09/13 09:34:25;;;;;;;5.03;4.57;;;;;;;;;;6369909;22;20773;-84
2021/09/13 09:37:00;;;;;;;5.33;4.93;;;;;;;;;;6370443;22;20376;-84
2021/09/13 09:39:30;;;;;;;6.87;4.40;;;;;;;;;;6380244;22;20389;-85
2021/09/13 09:41:57;;;;;;;4.60;4.10;;;;;;;;;;6341879;22;20398;-85
2021/09/13 09:44:23;;;;;;;6.83;4.17;;;;;;;;;;6380471;22;20447;-86
2021/09/13 09:46:51;;;;;;;7.20;4.23;;;;;;;;;;6380273;22;20360;-85
2021/09/13 09:49:21;;;;;;;4.90;4.50;;;;;;;;;;6380225;22;20423;-85
2021/09/13 09:51:50;;;;;;;5.17;4.67;;;;;;;;;;6380354;22;20393;-84
2021/09/13 09:54:17;;;;;;;3.63;3.33;;;;;;;;;;6376764;22;20359;-84
2021/09/13 09:56:48;;;;;;;4.93;4.40;;;;;;;;;;6341757;22;20430;-85
2021/09/13 09:59:17;;;;;;;4.43;4.13;;;;;;;;;;6341551;22;20774;-82
2021/09/13 10:01:44;;;;;;;4.87;3.80;;;;;;;;;;6380054;22;20412;-81
2021/09/13 10:04:17;;;;;;;5.97;4.80;;;;;;;;;;6380197;22;20367;-84
2021/09/13 10:06:44;;;;;;;6.67;5.13;;;;;;;;;;6380149;22;20911;-79
2021/09/13 10:09:11;;;;;;;5.13;4.63;;;;;;;;;;6369924;22;20445;-85
2021/09/13 10:11:41;;;;;;;4.60;4.20;;;;;;;;;;6379787;22;20888;-84
2021/09/13 10:14:09;;;;;;;4.97;3.67;;;;;;;;;;6369586;22;20553;-83
2021/09/13 10:16:37;;;;;;;5.43;5.03;;;;;;;;;;6379794;22;20526;-84
2021/09/13 10:19:03;;;;;;;4.33;3.90;;;;;;;;;;6379748;22;20685;-81
2021/09/13 10:21:29;;;;;;;5.50;4.63;;;;;;;;;;6379842;22;20818;-83
2021/09/13 10:23:55;;;;;;;7.47;5.57;;;;;;;;;;6379260;22;20450;-77
2021/09/13 10:26:21;;;;;;;7.30;5.27;;;;;;;;;;6380044;22;20423;-83
2021/09/13 10:29:02;;;;;;;5.13;4.63;;;;;;;;;;6369163;22;20753;-78
2021/09/13 10:31:47;;;;;;;5.77;5.17;;;;;;;;;;6379325;22;20421;-84
2021/09/13 10:34:16;;;;;;;5.17;4.03;;;;;;;;;;6368828;22;20432;-84
2021/09/13 10:36:59;;;;;;;4.70;4.23;;;;;;;;;;6368538;22;20372;-81
2021/09/13 10:39:43;;;;;;;5.80;4.30;;;;;;;;;;6379117;22;20668;-81
2021/09/13 10:42:09;;;;;;;5.30;4.47;;;;;;;;;;6368664;22;20375;-82
2021/09/13 10:44:36;;;;;;;4.43;3.90;;;;;;;;;;6378978;22;20370;-84
2021/09/13 10:47:06;;;;;;;5.77;3.47;;;;;;;;;;6368835;22;20458;-83
2021/09/13 10:49:32;;;;;;;4.10;3.80;;;;;;;;;;6379129;22;20425;-84
2021/09/13 10:52:17;;;;;;;5.73;5.23;;;;;;;;;;6379310;22;20694;-84
2021/09/13 10:55:03;;;;;;;7.17;4.60;;;;;;;;;;6380819;22;20371;-82
2021/09/13 10:57:52;;;;;;;4.30;3.97;;;;;;;;;;6380964;22;20855;-83
2021/09/13 11:00:37;;;;;;;5.33;4.30;;;;;;;;;;6354069;22;20947;-82
2021/09/13 11:03:21;;;;;;;5.60;4.10;;;;;;;;;;6368705;22;20726;-85
2021/09/13 11:05:47;;;;;;;6.63;5.80;;;;;;;;;;6379605;22;20375;-83
2021/09/13 11:08:23;;;;;;;7.20;4.07;;;;;;;;;;6379476;22;20374;-82
2021/09/13 11:10:49;;;;;;;4.97;4.57;;;;;;;;;;6379389;22;20425;-81
2021/09/13 11:13:17;;;;;;;4.83;4.23;;;;;;;;;;6379687;22;20363;-83
2021/09/13 11:15:49;;;;;;;4.60;4.20;;;;;;;;;;6379457;22;20364;-84
2021/09/13 11:18:37;;;;;;;5.00;4.50;;;;;;;;;;6379901;22;20692;-83
2021/09/13 11:21:22;;;;;;;4.77;4.27;;;;;;;;;;6380035;22;20387;-82
2021/09/13 11:23:49;;;;;;;4.53;4.13;;;;;;;;;;6379677;22;20471;-79
2021/09/13 11:26:20;;;;;;;4.63;4.23;;;;;;;;;;6379393;22;20498;-80
2021/09/13 11:31:50;;;;;;;6.27;5.77;;;;;;;;;;6379612;22;20437;-78
2021/09/13 11:34:16;;;;;;;5.80;4.23;;;;;;;;;;6369028;22;20382;-80
2021/09/13 11:36:54;;;;;;;5.80;5.23;;;;;;;;;;6379606;22;20802;-78
2021/09/13 11:39:20;;;;;;;4.50;4.10;;;;;;;;;;6369058;22;20778;-84
2021/09/13 11:41:55;;;;;;;5.57;5.07;;;;;;;;;;6379519;22;20442;-85
2021/09/13 11:47:29;;;;;;;4.33;4.03;;;;;;;;;;6379301;22;20766;-82
2021/09/13 11:49:56;;;;;;;4.77;4.37;;;;;;;;;;6369059;22;20746;-85
2021/09/13 11:52:29;;;;;;;4.20;3.90;;;;;;;;;;6368801;22;20902;-84
2021/09/13 11:54:55;;;;;;;4.70;4.30;;;;;;;;;;6379215;22;20364;-85
2021/09/13 11:57:22;;;;;;;3.50;3.20;;;;;;;;;;6371116;22;20370;-84
2021/09/13 12:03:03;;;;;;;4.83;3.70;;;;;;;;;;6382742;22;20373;-84
2021/09/13 12:05:39;;;;;;;3.37;3.13;;;;;;;;;;6373728;22;20379;-87
2021/09/13 12:08:14;;;;;;;4.30;3.57;;;;;;;;;;6387554;22;20359;-80
2021/09/13 12:10:40;;;;;;;3.63;3.33;;;;;;;;;;6384487;22;20418;-81
2021/09/13 12:13:11;;;;;;;2.97;2.77;;;;;;;;;;6383016;22;20364;-78
2021/09/13 12:18:40;;;;;;;4.07;3.77;;;;;;;;;;6383119;22;20736;-79
2021/09/13 12:21:16;;;;;;;3.67;3.37;;;;;;;;;;6382898;22;20371;-80
2021/09/13 12:23:45;;;;;;;2.93;2.73;;;;;;;;;;6382765;22;20844;-85
2021/09/13 12:26:11;;;;;;;3.70;3.17;;;;;;;;;;6372397;22;20445;-85
2021/09/13 12:28:37;;;;;;;4.70;2.90;;;;;;;;;;6383205;22;20367;-83
2021/09/13 12:34:07;;;;;;;3.10;2.53;;;;;;;;;;6382961;22;20394;-83
2021/09/13 12:36:33;;;;;;;4.53;3.00;;;;;;;;;;6382909;22;20363;-82
2021/09/13 12:39:00;;;;;;;2.90;2.70;;;;;;;;;;6344185;22;20439;-84
2021/09/13 12:41:36;;;;;;;3.83;2.97;;;;;;;;;;6371926;22;20375;-82
2021/09/13 12:44:20;;;;;;;6.40;3.27;;;;;;;;;;6372971;22;20378;-84
2021/09/13 12:49:51;;;;;;;3.57;3.27;;;;;;;;;;6382711;22;20467;-76
2021/09/13 12:52:17;;;;;;;3.10;2.90;;;;;;;;;;6375700;22;20431;-85
2021/09/13 12:54:43;;;;;;;3.43;3.13;;;;;;;;;;6383656;22;20386;-85
2021/09/13 12:57:09;;;;;;;3.77;3.47;;;;;;;;;;6382719;22;20367;-86
2021/09/13 12:59:35;;;;;;;3.70;3.40;;;;;;;;;;6344734;22;20399;-87
2021/09/13 13:02:12;;;;;;;3.17;2.97;;;;;;;;;;6382834;22;20374;-86
2021/09/13 13:04:39;;;;;;;3.33;3.10;;;;;;;;;;6377869;22;20410;-87
2021/09/13 13:07:11;;;;;;;2.90;2.70;;;;;;;;;;6379957;22;20696;-85
2021/09/13 13:09:38;;;;;;;3.53;3.20;;;;;;;;;;6381923;22;20424;-84
2021/09/13 13:12:04;;;;;;;2.93;2.73;;;;;;;;;;6370482;22;20393;-85
2021/09/13 13:14:30;;;;;;;3.10;2.80;;;;;;;;;;6380793;22;20355;-85
2021/09/13 13:20:01;;;;;;;3.40;3.10;;;;;;;;;;6380778;22;20378;-83
2021/09/13 13:22:27;;;;;;;3.10;2.90;;;;;;;;;;6370646;22;20375;-82
2021/09/13 13:24:53;;;;;;;2.90;2.57;;;;;;;;;;6380647;22;20363;-74
2021/09/13 13:27:19;;;;;;;3.10;2.90;;;;;;;;;;6380828;22;20426;-84
2021/09/13 13:29:45;;;;;;;2.43;2.23;;;;;;;;;;6370394;22;20435;-83
2021/09/13 13:32:11;;;;;;;3.07;2.87;;;;;;;;;;6370018;22;20371;-84
2021/09/13 13:34:39;;;;;;;2.90;2.70;;;;;;;;;;6380864;22;20370;-85
2021/09/13 13:37:04;;;;;;;3.00;2.73;;;;;;;;;;6380820;22;20363;-84
2021/09/13 13:39:30;;;;;;;2.83;2.63;;;;;;;;;;6379519;22;20417;-83
2021/09/13 13:41:56;;;;;;;3.70;3.40;;;;;;;;;;6380408;22;20391;-85
2021/09/13 13:44:22;;;;;;;3.23;2.93;;;;;;;;;;6380312;22;20652;-84
2021/09/13 13:49:52;;;;;;;3.07;2.87;;;;;;;;;;6380272;22;20483;-82
2021/09/13 13:52:19;;;;;;;3.40;3.20;;;;;;;;;;6380284;22;20375;-86
2021/09/13 13:54:45;;;;;;;3.90;3.20;;;;;;;;;;6380334;22;20387;-85
2021/09/13 13:57:11;;;;;;;4.20;3.30;;;;;;;;;;6382592;22;20688;-85
2021/09/13 13:59:37;;;;;;;3.40;2.77;;;;;;;;;;6381145;22;20910;-84
2021/09/13 14:05:07;;;;;;;2.83;2.63;;;;;;;;;;6380552;22;20389;-86
2021/09/13 14:07:33;;;;;;;2.73;2.53;;;;;;;;;;6380289;22;20703;-85
2021/09/13 14:10:00;;;;;;;3.40;3.20;;;;;;;;;;6380158;22;20423;-84
2021/09/13 14:12:26;;;;;;;3.17;2.97;;;;;;;;;;6370136;22;20420;-86
2021/09/13 14:14:52;;;;;;;2.70;2.50;;;;;;;;;;6382402;22;20371;-85
2021/09/13 14:20:22;;;;;;;3.07;2.87;;;;;;;;;;6380221;22;20386;-85
2021/09/13 14:22:48;;;;;;;3.33;3.07;;;;;;;;;;6379977;22;20898;-84
2021/09/13 14:25:14;;;;;;;3.30;3.00;;;;;;;;;;6369637;22;20441;-81
2021/09/13 14:27:40;;;;;;;8.63;3.80;;;;;;;;;;6369246;22;20881;-84
2021/09/13 14:30:06;;;;;;;3.70;3.10;;;;;;;;;;6380050;22;20486;-84
2021/09/13 14:35:36;;;;;;;6.33;4.33;;;;;;;;;;6380096;22;20458;-72
2021/09/13 14:38:04;;;;;;;4.70;3.20;;;;;;;;;;6379995;22;20387;-80
2021/09/13 14:40:30;;;;;;;3.30;2.80;;;;;;;;;;6369760;22;20367;-81
2021/09/13 14:42:56;;;;;;;3.30;3.07;;;;;;;;;;6379889;22;20360;-84
2021/09/13 14:45:22;;;;;;;3.00;2.63;;;;;;;;;;6379820;22;20395;-79
2021/09/13 14:47:49;;;;;;;2.90;2.70;;;;;;;;;;6378901;22;20378;-78
2021/09/13 14:50:15;;;;;;;2.87;2.60;;;;;;;;;;6379514;22;20423;-80
2021/09/13 14:52:41;;;;;;;3.50;3.20;;;;;;;;;;6369308;22;20649;-78
2021/09/13 14:55:08;;;;;;;3.13;2.93;;;;;;;;;;6379717;22;20454;-84
2021/09/13 14:57:34;;;;;;;2.87;2.67;;;;;;;;;;6379112;22;20438;-86
2021/09/13 15:00:04;;;;;;;3.33;3.03;;;;;;;;;;6368765;22;20379;-80
2021/09/13 15:05:33;;;;;;;2.87;2.67;;;;;;;;;;6381280;22;20361;-82
2021/09/13 15:07:59;;;;;;;2.50;2.30;;;;;;;;;;6343525;22;20482;-78
2021/09/13 15:10:25;;;;;;;3.43;3.13;;;;;;;;;;6380904;22;20418;-87
2021/09/13 15:12:51;;;;;;;3.03;2.73;;;;;;;;;;6370907;22;20371;-86
2021/09/13 15:15:17;;;;;;;3.33;2.70;;;;;;;;;;6381052;22;20371;-85
2021/09/13 15:20:47;;;;;;;3.57;3.20;;;;;;;;;;6379936;22;20370;-87
2021/09/13 15:23:14;;;;;;;4.00;3.00;;;;;;;;;;6369631;22;20378;-84
2021/09/13 15:25:41;;;;;;;3.43;2.80;;;;;;;;;;6379779;22;20365;-86
2021/09/13 15:28:08;;;;;;;3.50;2.77;;;;;;;;;;6369054;22;20390;-86
2021/09/13 15:30:34;;;;;;;5.50;2.50;;;;;;;;;;6340708;22;20441;-86
2021/09/13 15:36:03;;;;;;;2.93;2.73;;;;;;;;;;6379756;22;20366;-86
2021/09/13 15:38:30;;;;;;;5.93;2.90;;;;;;;;;;6382342;22;20374;-85
2021/09/13 15:40:56;;;;;;;2.87;2.67;;;;;;;;;;6378617;22;20375;-87
2021/09/13 15:43:21;;;;;;;3.30;2.73;;;;;;;;;;6379071;22;20411;-84
2021/09/13 15:45:47;;;;;;;3.00;2.70;;;;;;;;;;6379067;22;20409;-83
2021/09/13 15:51:17;;;;;;;3.40;3.10;;;;;;;;;;6379302;22;20771;-86
2021/09/13 15:53:43;;;;;;;3.10;2.80;;;;;;;;;;6379306;22;20674;-86
2021/09/13 15:56:09;;;;;;;2.67;2.47;;;;;;;;;;6379004;22;20450;-86
2021/09/13 15:58:35;;;;;;;2.90;2.70;;;;;;;;;;6379515;22;20381;-85
2021/09/13 16:01:01;;;;;;;2.83;2.63;;;;;;;;;;6379114;22;20443;-87
2021/09/13 16:03:27;;;;;;;3.70;2.90;;;;;;;;;;6369193;22;20702;-86
2021/09/13 16:05:53;;;;;;;3.20;3.00;;;;;;;;;;6379580;22;20367;-86
2021/09/13 16:08:19;;;;;;;3.10;2.80;;;;;;;;;;6369598;22;20379;-86
2021/09/13 16:10:45;;;;;;;3.03;2.70;;;;;;;;;;6379611;22;20425;-86
2021/09/13 16:13:11;;;;;;;4.53;3.27;;;;;;;;;;6341048;22;20386;-82
2021/09/13 16:15:37;;;;;;;6.83;2.67;;;;;;;;;;6379303;22;20385;-86
2021/09/13 16:21:06;;;;;;;2.97;2.77;;;;;;;;;;6382986;22;20377;-80
2021/09/13 16:23:32;;;;;;;3.97;3.00;;;;;;;;;;6380699;22;20822;-88
2021/09/13 16:26:04;;;;;;;6.50;3.60;;;;;;;;;;6368374;22;20430;-87
2021/09/13 16:28:30;;;;;;;3.40;3.07;;;;;;;;;;6379326;22;20375;-85
2021/09/13 16:30:56;;;;;;;4.30;2.90;;;;;;;;;;6369285;22;20430;-87
2021/09/13 16:36:26;;;;;;;4.20;3.23;;;;;;;;;;6379424;22;20412;-87
2021/09/13 16:38:52;;;;;;;3.43;3.10;;;;;;;;;;6379084;22;20371;-86
2021/09/13 16:41:18;;;;;;;4.00;3.20;;;;;;;;;;6379362;22;20374;-87
2021/09/13 16:43:44;;;;;;;3.80;3.50;;;;;;;;;;6370696;22;20473;-84
2021/09/13 16:46:10;;;;;;;3.83;3.43;;;;;;;;;;6371251;22;20459;-87
2021/09/13 16:51:39;;;;;;;3.80;3.50;;;;;;;;;;6381010;22;20397;-88
2021/09/13 16:54:05;;;;;;;4.77;4.07;;;;;;;;;;6381148;22;20373;-87
2021/09/13 16:56:31;;;;;;;4.43;4.03;;;;;;;;;;6377264;22;20386;-87
2021/09/13 16:58:57;;;;;;;6.33;4.03;;;;;;;;;;6381492;22;20375;-84
2021/09/13 17:01:23;;;;;;;5.27;4.77;;;;;;;;;;6342183;22;20708;-80
2021/09/13 17:06:53;;;;;;;5.70;4.40;;;;;;;;;;6381030;22;20710;-76
2021/09/13 17:09:19;;;;;;;4.53;3.83;;;;;;;;;;6380288;22;20476;-84
2021/09/13 17:11:47;;;;;;;4.37;3.97;;;;;;;;;;6369601;22;20883;-81